sensor_id;sensor_type;location;lat;lon;timestamp;P1;durP1;ratioP1;P2;durP2;ratioP2
64500;SDS011;50874;24.150;-110.320;2022-09-17T00:01:09;5.20;;;1.50;;
64500;SDS011;50874;24.150;-110.320;2022-09-17T00:03:41;5.35;;;1.70;;
64500;SDS011;50874;24.150;-110.320;2022-09-17T00:06:10;8.43;;;1.65;;
64500;SDS011;50874;24.150;-110.320;2022-09-17T00:08:38;7.75;;;2.03;;
64500;SDS011;50874;24.150;-110.320;2022-09-17T00:11:09;6.70;;;1.88;;
64500;SDS011;50874;24.150;-110.320;2022-09-17T00:13:38;5.73;;;1.27;;
64500;SDS011;50874;24.150;-110.320;2022-09-17T00:16:05;9.57;;;1.75;;
64500;SDS011;50874;24.150;-110.320;2022-09-17T00:18:32;9.93;;;2.22;;
64500;SDS011;50874;24.150;-110.320;2022-09-17T00:21:01;19.20;;;2.67;;
64500;SDS011;50874;24.150;-110.320;2022-09-17T00:23:28;11.15;;;2.10;;
64500;SDS011;50874;24.150;-110.320;2022-09-17T00:25:54;8.32;;;1.80;;
64500;SDS011;50874;24.150;-110.320;2022-09-17T00:28:21;7.30;;;2.17;;
64500;SDS011;50874;24.150;-110.320;2022-09-17T00:30:47;10.82;;;1.83;;
64500;SDS011;50874;24.150;-110.320;2022-09-17T00:33:14;9.98;;;3.15;;
64500;SDS011;50874;24.150;-110.320;2022-09-17T00:35:42;3.97;;;1.67;;
64500;SDS011;50874;24.150;-110.320;2022-09-17T00:38:10;44.17;;;5.25;;
64500;SDS011;50874;24.150;-110.320;2022-09-17T00:40:36;13.23;;;2.85;;
64500;SDS011;50874;24.150;-110.320;2022-09-17T00:43:03;6.60;;;1.55;;
64500;SDS011;50874;24.150;-110.320;2022-09-17T00:45:34;3.60;;;1.40;;
64500;SDS011;50874;24.150;-110.320;2022-09-17T00:48:02;7.30;;;1.73;;
64500;SDS011;50874;24.150;-110.320;2022-09-17T00:50:33;4.22;;;1.83;;
64500;SDS011;50874;24.150;-110.320;2022-09-17T00:53:05;10.07;;;2.17;;
64500;SDS011;50874;24.150;-110.320;2022-09-17T00:55:36;15.63;;;2.40;;
64500;SDS011;50874;24.150;-110.320;2022-09-17T00:58:05;8.27;;;2.00;;
64500;SDS011;50874;24.150;-110.320;2022-09-17T01:00:34;7.78;;;1.63;;
64500;SDS011;50874;24.150;-110.320;2022-09-17T01:03:01;12.15;;;1.85;;
64500;SDS011;50874;24.150;-110.320;2022-09-17T01:05:43;14.40;;;4.32;;
64500;SDS011;50874;24.150;-110.320;2022-09-17T01:08:24;20.48;;;4.38;;
64500;SDS011;50874;24.150;-110.320;2022-09-17T01:17:14;3.90;;;1.52;;
64500;SDS011;50874;24.150;-110.320;2022-09-17T01:26:04;5.53;;;2.97;;
64500;SDS011;50874;24.150;-110.320;2022-09-17T01:28:55;23.02;;;4.13;;
64500;SDS011;50874;24.150;-110.320;2022-09-17T01:31:58;28.67;;;4.05;;
64500;SDS011;50874;24.150;-110.320;2022-09-17T01:34:44;24.95;;;4.82;;
64500;SDS011;50874;24.150;-110.320;2022-09-17T01:39:58;15.63;;;3.67;;
64500;SDS011;50874;24.150;-110.320;2022-09-17T01:48:47;4.78;;;1.73;;
64500;SDS011;50874;24.150;-110.320;2022-09-17T01:53:49;10.23;;;2.72;;
64500;SDS011;50874;24.150;-110.320;2022-09-17T01:59:51;12.35;;;3.72;;
64500;SDS011;50874;24.150;-110.320;2022-09-17T02:02:29;13.07;;;4.05;;
64500;SDS011;50874;24.150;-110.320;2022-09-17T02:05:04;16.60;;;4.28;;
64500;SDS011;50874;24.150;-110.320;2022-09-17T02:07:38;13.20;;;3.60;;
64500;SDS011;50874;24.150;-110.320;2022-09-17T02:10:09;17.27;;;4.20;;
64500;SDS011;50874;24.150;-110.320;2022-09-17T02:12:45;17.65;;;3.38;;
64500;SDS011;50874;24.150;-110.320;2022-09-17T02:15:17;11.15;;;4.53;;
64500;SDS011;50874;24.150;-110.320;2022-09-17T02:18:02;16.10;;;3.95;;
64500;SDS011;50874;24.150;-110.320;2022-09-17T02:20:51;10.10;;;3.20;;
64500;SDS011;50874;24.150;-110.320;2022-09-17T02:23:37;17.70;;;4.35;;
64500;SDS011;50874;24.150;-110.320;2022-09-17T02:26:17;16.60;;;3.78;;
64500;SDS011;50874;24.150;-110.320;2022-09-17T02:28:49;15.15;;;3.78;;
64500;SDS011;50874;24.150;-110.320;2022-09-17T02:31:21;17.88;;;4.40;;
64500;SDS011;50874;24.150;-110.320;2022-09-17T02:33:48;13.02;;;3.70;;
64500;SDS011;50874;24.150;-110.320;2022-09-17T02:36:17;14.68;;;3.53;;
64500;SDS011;50874;24.150;-110.320;2022-09-17T02:38:44;14.32;;;3.72;;
64500;SDS011;50874;24.150;-110.320;2022-09-17T02:41:13;21.00;;;4.78;;
64500;SDS011;50874;24.150;-110.320;2022-09-17T02:52:11;21.10;;;5.17;;
64500;SDS011;50874;24.150;-110.320;2022-09-17T02:54:59;17.92;;;4.07;;
64500;SDS011;50874;24.150;-110.320;2022-09-17T02:57:43;13.55;;;4.47;;
64500;SDS011;50874;24.150;-110.320;2022-09-17T03:00:18;17.33;;;4.00;;
64500;SDS011;50874;24.150;-110.320;2022-09-17T03:05:17;23.10;;;5.30;;
64500;SDS011;50874;24.150;-110.320;2022-09-17T03:07:45;15.45;;;4.35;;
64500;SDS011;50874;24.150;-110.320;2022-09-17T03:10:12;22.13;;;5.25;;
64500;SDS011;50874;24.150;-110.320;2022-09-17T03:12:39;13.57;;;4.32;;
64500;SDS011;50874;24.150;-110.320;2022-09-17T03:15:06;14.85;;;4.38;;
64500;SDS011;50874;24.150;-110.320;2022-09-17T03:17:33;20.17;;;4.82;;
64500;SDS011;50874;24.150;-110.320;2022-09-17T03:20:00;19.13;;;5.25;;
64500;SDS011;50874;24.150;-110.320;2022-09-17T03:22:26;18.10;;;4.75;;
64500;SDS011;50874;24.150;-110.320;2022-09-17T03:24:53;22.20;;;4.82;;
64500;SDS011;50874;24.150;-110.320;2022-09-17T03:27:19;18.23;;;4.90;;
64500;SDS011;50874;24.150;-110.320;2022-09-17T03:29:45;17.80;;;4.20;;
64500;SDS011;50874;24.150;-110.320;2022-09-17T03:32:12;16.90;;;5.00;;
64500;SDS011;50874;24.150;-110.320;2022-09-17T03:34:38;19.23;;;3.92;;
64500;SDS011;50874;24.150;-110.320;2022-09-17T03:37:05;21.42;;;5.03;;
64500;SDS011;50874;24.150;-110.320;2022-09-17T03:39:31;26.25;;;5.47;;
64500;SDS011;50874;24.150;-110.320;2022-09-17T03:41:57;16.35;;;4.15;;
64500;SDS011;50874;24.150;-110.320;2022-09-17T03:44:24;14.82;;;4.82;;
64500;SDS011;50874;24.150;-110.320;2022-09-17T03:46:50;24.02;;;5.78;;
64500;SDS011;50874;24.150;-110.320;2022-09-17T03:49:17;17.27;;;4.30;;
64500;SDS011;50874;24.150;-110.320;2022-09-17T03:51:43;17.98;;;4.38;;
64500;SDS011;50874;24.150;-110.320;2022-09-17T03:54:10;12.93;;;4.32;;
64500;SDS011;50874;24.150;-110.320;2022-09-17T03:56:36;20.70;;;4.78;;
64500;SDS011;50874;24.150;-110.320;2022-09-17T03:59:02;15.32;;;5.45;;
64500;SDS011;50874;24.150;-110.320;2022-09-17T04:01:29;16.08;;;5.40;;
64500;SDS011;50874;24.150;-110.320;2022-09-17T04:03:55;21.60;;;5.03;;
64500;SDS011;50874;24.150;-110.320;2022-09-17T04:06:22;19.60;;;4.65;;
64500;SDS011;50874;24.150;-110.320;2022-09-17T04:08:48;15.68;;;4.90;;
64500;SDS011;50874;24.150;-110.320;2022-09-17T04:11:15;17.73;;;4.88;;
64500;SDS011;50874;24.150;-110.320;2022-09-17T04:13:41;13.52;;;4.10;;
64500;SDS011;50874;24.150;-110.320;2022-09-17T04:16:08;19.85;;;4.57;;
64500;SDS011;50874;24.150;-110.320;2022-09-17T04:18:34;15.00;;;4.72;;
64500;SDS011;50874;24.150;-110.320;2022-09-17T04:21:01;27.42;;;5.03;;
64500;SDS011;50874;24.150;-110.320;2022-09-17T04:23:28;22.13;;;4.82;;
64500;SDS011;50874;24.150;-110.320;2022-09-17T04:25:54;15.93;;;5.15;;
64500;SDS011;50874;24.150;-110.320;2022-09-17T04:28:20;13.90;;;4.38;;
64500;SDS011;50874;24.150;-110.320;2022-09-17T04:30:48;30.85;;;4.65;;
64500;SDS011;50874;24.150;-110.320;2022-09-17T04:33:14;16.38;;;4.90;;
64500;SDS011;50874;24.150;-110.320;2022-09-17T04:35:41;12.18;;;4.38;;
64500;SDS011;50874;24.150;-110.320;2022-09-17T04:38:07;13.55;;;5.10;;
64500;SDS011;50874;24.150;-110.320;2022-09-17T04:40:34;13.15;;;4.68;;
64500;SDS011;50874;24.150;-110.320;2022-09-17T04:43:01;26.05;;;5.18;;
64500;SDS011;50874;24.150;-110.320;2022-09-17T04:45:28;18.75;;;4.95;;
64500;SDS011;50874;24.150;-110.320;2022-09-17T04:47:57;13.52;;;4.70;;
64500;SDS011;50874;24.150;-110.320;2022-09-17T04:50:24;20.50;;;4.20;;
64500;SDS011;50874;24.150;-110.320;2022-09-17T04:52:50;18.40;;;4.70;;
64500;SDS011;50874;24.150;-110.320;2022-09-17T04:55:17;14.10;;;4.65;;
64500;SDS011;50874;24.150;-110.320;2022-09-17T04:57:47;22.02;;;4.50;;
64500;SDS011;50874;24.150;-110.320;2022-09-17T05:00:15;19.70;;;5.10;;
64500;SDS011;50874;24.150;-110.320;2022-09-17T05:02:46;16.13;;;5.22;;
64500;SDS011;50874;24.150;-110.320;2022-09-17T05:05:14;15.05;;;4.20;;
64500;SDS011;50874;24.150;-110.320;2022-09-17T05:07:42;17.70;;;4.20;;
64500;SDS011;50874;24.150;-110.320;2022-09-17T05:10:09;17.20;;;4.35;;
64500;SDS011;50874;24.150;-110.320;2022-09-17T05:12:36;15.10;;;4.28;;
64500;SDS011;50874;24.150;-110.320;2022-09-17T05:15:04;15.82;;;4.57;;
64500;SDS011;50874;24.150;-110.320;2022-09-17T05:17:32;14.52;;;4.25;;
64500;SDS011;50874;24.150;-110.320;2022-09-17T05:19:58;17.58;;;4.80;;
64500;SDS011;50874;24.150;-110.320;2022-09-17T05:22:25;24.23;;;4.40;;
64500;SDS011;50874;24.150;-110.320;2022-09-17T05:24:51;20.05;;;4.82;;
64500;SDS011;50874;24.150;-110.320;2022-09-17T05:27:18;15.35;;;4.35;;
64500;SDS011;50874;24.150;-110.320;2022-09-17T05:29:44;16.10;;;4.60;;
64500;SDS011;50874;24.150;-110.320;2022-09-17T05:32:11;18.42;;;3.72;;
64500;SDS011;50874;24.150;-110.320;2022-09-17T05:34:37;14.65;;;4.40;;
64500;SDS011;50874;24.150;-110.320;2022-09-17T05:37:04;14.45;;;4.90;;
64500;SDS011;50874;24.150;-110.320;2022-09-17T05:39:31;18.48;;;5.13;;
64500;SDS011;50874;24.150;-110.320;2022-09-17T05:41:57;22.50;;;5.82;;
64500;SDS011;50874;24.150;-110.320;2022-09-17T05:44:24;17.98;;;4.13;;
64500;SDS011;50874;24.150;-110.320;2022-09-17T05:46:51;19.63;;;4.82;;
64500;SDS011;50874;24.150;-110.320;2022-09-17T05:49:18;20.08;;;4.88;;
64500;SDS011;50874;24.150;-110.320;2022-09-17T05:51:45;23.88;;;4.97;;
64500;SDS011;50874;24.150;-110.320;2022-09-17T05:54:11;13.65;;;3.90;;
64500;SDS011;50874;24.150;-110.320;2022-09-17T05:56:37;18.17;;;4.57;;
64500;SDS011;50874;24.150;-110.320;2022-09-17T05:59:04;16.38;;;3.85;;
64500;SDS011;50874;24.150;-110.320;2022-09-17T06:01:30;14.93;;;4.78;;
64500;SDS011;50874;24.150;-110.320;2022-09-17T06:03:57;21.50;;;4.07;;
64500;SDS011;50874;24.150;-110.320;2022-09-17T06:06:23;17.23;;;4.25;;
64500;SDS011;50874;24.150;-110.320;2022-09-17T06:08:53;16.00;;;3.53;;
64500;SDS011;50874;24.150;-110.320;2022-09-17T06:11:20;20.05;;;4.30;;
64500;SDS011;50874;24.150;-110.320;2022-09-17T06:13:46;25.90;;;5.10;;
64500;SDS011;50874;24.150;-110.320;2022-09-17T06:16:14;17.52;;;4.38;;
64500;SDS011;50874;24.150;-110.320;2022-09-17T06:18:40;18.45;;;4.68;;
64500;SDS011;50874;24.150;-110.320;2022-09-17T06:21:06;12.43;;;4.97;;
64500;SDS011;50874;24.150;-110.320;2022-09-17T06:23:33;19.45;;;4.28;;
64500;SDS011;50874;24.150;-110.320;2022-09-17T06:26:03;19.48;;;3.88;;
64500;SDS011;50874;24.150;-110.320;2022-09-17T06:28:31;14.40;;;3.97;;
64500;SDS011;50874;24.150;-110.320;2022-09-17T06:31:01;24.58;;;4.65;;
64500;SDS011;50874;24.150;-110.320;2022-09-17T06:33:29;15.95;;;4.60;;
64500;SDS011;50874;24.150;-110.320;2022-09-17T06:35:59;13.15;;;4.05;;
64500;SDS011;50874;24.150;-110.320;2022-09-17T06:38:36;15.15;;;4.15;;
64500;SDS011;50874;24.150;-110.320;2022-09-17T06:41:03;15.50;;;5.00;;
64500;SDS011;50874;24.150;-110.320;2022-09-17T06:43:30;9.48;;;3.40;;
64500;SDS011;50874;24.150;-110.320;2022-09-17T06:45:57;13.02;;;4.15;;
64500;SDS011;50874;24.150;-110.320;2022-09-17T06:48:26;20.15;;;4.00;;
64500;SDS011;50874;24.150;-110.320;2022-09-17T06:50:53;15.90;;;4.15;;
64500;SDS011;50874;24.150;-110.320;2022-09-17T06:53:21;17.20;;;4.53;;
64500;SDS011;50874;24.150;-110.320;2022-09-17T06:55:48;10.23;;;4.03;;
64500;SDS011;50874;24.150;-110.320;2022-09-17T06:58:15;11.23;;;3.40;;
64500;SDS011;50874;24.150;-110.320;2022-09-17T07:00:42;15.13;;;4.68;;
64500;SDS011;50874;24.150;-110.320;2022-09-17T07:03:08;11.48;;;3.92;;
64500;SDS011;50874;24.150;-110.320;2022-09-17T07:05:35;20.33;;;5.05;;
64500;SDS011;50874;24.150;-110.320;2022-09-17T07:08:01;16.77;;;4.32;;
64500;SDS011;50874;24.150;-110.320;2022-09-17T07:10:28;18.50;;;4.47;;
64500;SDS011;50874;24.150;-110.320;2022-09-17T07:12:56;20.70;;;4.53;;
64500;SDS011;50874;24.150;-110.320;2022-09-17T07:15:23;11.55;;;4.15;;
64500;SDS011;50874;24.150;-110.320;2022-09-17T07:17:50;14.35;;;3.55;;
64500;SDS011;50874;24.150;-110.320;2022-09-17T07:20:16;12.98;;;4.65;;
64500;SDS011;50874;24.150;-110.320;2022-09-17T07:22:43;20.73;;;4.72;;
64500;SDS011;50874;24.150;-110.320;2022-09-17T07:25:11;10.73;;;3.90;;
64500;SDS011;50874;24.150;-110.320;2022-09-17T07:27:37;11.48;;;4.47;;
64500;SDS011;50874;24.150;-110.320;2022-09-17T07:30:04;21.30;;;4.05;;
64500;SDS011;50874;24.150;-110.320;2022-09-17T07:32:31;19.63;;;5.32;;
64500;SDS011;50874;24.150;-110.320;2022-09-17T07:34:57;15.32;;;5.30;;
64500;SDS011;50874;24.150;-110.320;2022-09-17T07:37:24;11.63;;;4.22;;
64500;SDS011;50874;24.150;-110.320;2022-09-17T07:39:50;25.63;;;4.65;;
64500;SDS011;50874;24.150;-110.320;2022-09-17T07:42:17;15.48;;;4.88;;
64500;SDS011;50874;24.150;-110.320;2022-09-17T07:44:43;20.65;;;3.92;;
64500;SDS011;50874;24.150;-110.320;2022-09-17T07:47:11;13.52;;;4.05;;
64500;SDS011;50874;24.150;-110.320;2022-09-17T07:49:37;17.38;;;4.00;;
64500;SDS011;50874;24.150;-110.320;2022-09-17T07:52:03;17.17;;;4.50;;
64500;SDS011;50874;24.150;-110.320;2022-09-17T07:54:33;15.20;;;4.57;;
64500;SDS011;50874;24.150;-110.320;2022-09-17T07:57:03;23.77;;;4.60;;
64500;SDS011;50874;24.150;-110.320;2022-09-17T07:59:29;16.15;;;4.22;;
64500;SDS011;50874;24.150;-110.320;2022-09-17T08:01:56;15.88;;;4.10;;
64500;SDS011;50874;24.150;-110.320;2022-09-17T08:04:22;12.18;;;4.32;;
64500;SDS011;50874;24.150;-110.320;2022-09-17T08:06:49;13.80;;;4.70;;
64500;SDS011;50874;24.150;-110.320;2022-09-17T08:09:16;9.75;;;4.18;;
64500;SDS011;50874;24.150;-110.320;2022-09-17T08:11:43;16.80;;;4.07;;
64500;SDS011;50874;24.150;-110.320;2022-09-17T08:14:10;15.07;;;4.22;;
64500;SDS011;50874;24.150;-110.320;2022-09-17T08:16:38;15.27;;;4.50;;
64500;SDS011;50874;24.150;-110.320;2022-09-17T08:19:04;16.65;;;4.18;;
64500;SDS011;50874;24.150;-110.320;2022-09-17T08:21:31;12.57;;;3.88;;
64500;SDS011;50874;24.150;-110.320;2022-09-17T08:23:58;9.35;;;3.60;;
64500;SDS011;50874;24.150;-110.320;2022-09-17T08:26:24;8.52;;;3.33;;
64500;SDS011;50874;24.150;-110.320;2022-09-17T08:28:52;8.93;;;3.05;;
64500;SDS011;50874;24.150;-110.320;2022-09-17T08:31:21;14.68;;;3.63;;
64500;SDS011;50874;24.150;-110.320;2022-09-17T08:33:49;14.23;;;4.40;;
64500;SDS011;50874;24.150;-110.320;2022-09-17T08:36:17;18.02;;;4.43;;
64500;SDS011;50874;24.150;-110.320;2022-09-17T08:38:44;10.70;;;4.22;;
64500;SDS011;50874;24.150;-110.320;2022-09-17T08:49:09;13.73;;;4.25;;
64500;SDS011;50874;24.150;-110.320;2022-09-17T08:51:42;14.35;;;4.32;;
64500;SDS011;50874;24.150;-110.320;2022-09-17T08:54:26;9.27;;;3.92;;
64500;SDS011;50874;24.150;-110.320;2022-09-17T08:57:10;10.52;;;4.15;;
64500;SDS011;50874;24.150;-110.320;2022-09-17T09:00:20;9.30;;;3.90;;
64500;SDS011;50874;24.150;-110.320;2022-09-17T09:06:12;12.38;;;4.57;;
64500;SDS011;50874;24.150;-110.320;2022-09-17T09:08:33;9.15;;;4.05;;
64500;SDS011;50874;24.150;-110.320;2022-09-17T09:11:13;14.80;;;3.83;;
64500;SDS011;50874;24.150;-110.320;2022-09-17T09:13:53;13.13;;;3.92;;
64500;SDS011;50874;24.150;-110.320;2022-09-17T09:16:26;9.48;;;3.53;;
64500;SDS011;50874;24.150;-110.320;2022-09-17T09:19:03;15.27;;;4.35;;
64500;SDS011;50874;24.150;-110.320;2022-09-17T09:24:37;9.30;;;3.17;;
64500;SDS011;50874;24.150;-110.320;2022-09-17T09:29:44;12.07;;;4.15;;
64500;SDS011;50874;24.150;-110.320;2022-09-17T09:35:30;15.85;;;3.50;;
64500;SDS011;50874;24.150;-110.320;2022-09-17T09:38:03;9.13;;;3.83;;
64500;SDS011;50874;24.150;-110.320;2022-09-17T09:40:50;10.65;;;3.85;;
64500;SDS011;50874;24.150;-110.320;2022-09-17T09:46:43;12.85;;;4.00;;
64500;SDS011;50874;24.150;-110.320;2022-09-17T09:55:18;10.80;;;3.20;;
64500;SDS011;50874;24.150;-110.320;2022-09-17T10:00:37;8.27;;;3.45;;
64500;SDS011;50874;24.150;-110.320;2022-09-17T10:03:12;11.98;;;3.83;;
64500;SDS011;50874;24.150;-110.320;2022-09-17T10:08:26;9.88;;;3.67;;
64500;SDS011;50874;24.150;-110.320;2022-09-17T10:10:55;7.82;;;3.45;;
64500;SDS011;50874;24.150;-110.320;2022-09-17T10:13:21;9.30;;;3.85;;
64500;SDS011;50874;24.150;-110.320;2022-09-17T10:15:48;11.50;;;3.47;;
64500;SDS011;50874;24.150;-110.320;2022-09-17T10:18:22;10.48;;;3.60;;
64500;SDS011;50874;24.150;-110.320;2022-09-17T10:20:54;11.27;;;3.40;;
64500;SDS011;50874;24.150;-110.320;2022-09-17T10:23:23;11.95;;;3.50;;
64500;SDS011;50874;24.150;-110.320;2022-09-17T10:25:54;12.90;;;3.58;;
64500;SDS011;50874;24.150;-110.320;2022-09-17T10:28:32;9.32;;;3.30;;
64500;SDS011;50874;24.150;-110.320;2022-09-17T10:31:14;10.27;;;3.20;;
64500;SDS011;50874;24.150;-110.320;2022-09-17T10:33:55;11.88;;;3.53;;
64500;SDS011;50874;24.150;-110.320;2022-09-17T10:39:22;11.93;;;3.70;;
64500;SDS011;50874;24.150;-110.320;2022-09-17T10:41:59;8.85;;;2.75;;
64500;SDS011;50874;24.150;-110.320;2022-09-17T10:44:29;9.38;;;3.58;;
64500;SDS011;50874;24.150;-110.320;2022-09-17T10:47:04;9.85;;;3.17;;
64500;SDS011;50874;24.150;-110.320;2022-09-17T10:52:07;12.27;;;3.45;;
64500;SDS011;50874;24.150;-110.320;2022-09-17T10:57:24;7.43;;;3.90;;
64500;SDS011;50874;24.150;-110.320;2022-09-17T11:00:17;9.38;;;3.00;;
64500;SDS011;50874;24.150;-110.320;2022-09-17T11:10:50;9.77;;;3.90;;
64500;SDS011;50874;24.150;-110.320;2022-09-17T11:13:33;4.53;;;2.80;;
64500;SDS011;50874;24.150;-110.320;2022-09-17T11:16:14;7.75;;;2.78;;
64500;SDS011;50874;24.150;-110.320;2022-09-17T11:18:56;4.78;;;2.55;;
64500;SDS011;50874;24.150;-110.320;2022-09-17T11:21:38;9.57;;;3.10;;
64500;SDS011;50874;24.150;-110.320;2022-09-17T11:27:16;8.93;;;3.03;;
64500;SDS011;50874;24.150;-110.320;2022-09-17T11:37:49;10.18;;;3.70;;
64500;SDS011;50874;24.150;-110.320;2022-09-17T11:40:38;12.43;;;3.42;;
64500;SDS011;50874;24.150;-110.320;2022-09-17T11:43:25;8.80;;;2.92;;
64500;SDS011;50874;24.150;-110.320;2022-09-17T11:59:43;10.63;;;3.50;;
64500;SDS011;50874;24.150;-110.320;2022-09-17T12:02:16;13.05;;;4.25;;
64500;SDS011;50874;24.150;-110.320;2022-09-17T12:05:06;14.93;;;4.07;;
64500;SDS011;50874;24.150;-110.320;2022-09-17T12:16:11;11.68;;;4.57;;
64500;SDS011;50874;24.150;-110.320;2022-09-17T12:18:58;17.45;;;4.68;;
64500;SDS011;50874;24.150;-110.320;2022-09-17T12:21:28;15.68;;;4.68;;
64500;SDS011;50874;24.150;-110.320;2022-09-17T12:26:59;17.40;;;6.43;;
64500;SDS011;50874;24.150;-110.320;2022-09-17T12:32:41;16.23;;;4.18;;
64500;SDS011;50874;24.150;-110.320;2022-09-17T12:57:21;10.38;;;4.25;;
64500;SDS011;50874;24.150;-110.320;2022-09-17T13:00:01;11.07;;;3.60;;
64500;SDS011;50874;24.150;-110.320;2022-09-17T13:10:39;16.23;;;3.35;;
64500;SDS011;50874;24.150;-110.320;2022-09-17T13:16:21;7.30;;;3.47;;
64500;SDS011;50874;24.150;-110.320;2022-09-17T13:19:14;7.43;;;2.60;;
64500;SDS011;50874;24.150;-110.320;2022-09-17T13:21:59;12.80;;;3.58;;
64500;SDS011;50874;24.150;-110.320;2022-09-17T13:25:03;10.73;;;3.10;;
64500;SDS011;50874;24.150;-110.320;2022-09-17T13:27:32;9.25;;;3.65;;
64500;SDS011;50874;24.150;-110.320;2022-09-17T13:30:02;12.60;;;3.53;;
64500;SDS011;50874;24.150;-110.320;2022-09-17T13:37:56;12.95;;;3.53;;
64500;SDS011;50874;24.150;-110.320;2022-09-17T13:40:35;11.13;;;3.33;;
64500;SDS011;50874;24.150;-110.320;2022-09-17T13:45:30;9.40;;;3.75;;
64500;SDS011;50874;24.150;-110.320;2022-09-17T13:48:02;17.23;;;3.83;;
64500;SDS011;50874;24.150;-110.320;2022-09-17T13:50:33;12.25;;;3.45;;
64500;SDS011;50874;24.150;-110.320;2022-09-17T13:53:15;8.93;;;3.25;;
64500;SDS011;50874;24.150;-110.320;2022-09-17T14:00:45;7.90;;;3.55;;
64500;SDS011;50874;24.150;-110.320;2022-09-17T14:19:02;10.57;;;3.47;;
64500;SDS011;50874;24.150;-110.320;2022-09-17T14:27:05;11.98;;;3.53;;
64500;SDS011;50874;24.150;-110.320;2022-09-17T14:32:37;14.07;;;3.67;;
64500;SDS011;50874;24.150;-110.320;2022-09-17T14:46:26;12.77;;;3.70;;
64500;SDS011;50874;24.150;-110.320;2022-09-17T14:48:54;13.38;;;3.50;;
64500;SDS011;50874;24.150;-110.320;2022-09-17T14:51:38;21.35;;;4.30;;
64500;SDS011;50874;24.150;-110.320;2022-09-17T14:56:45;8.57;;;2.90;;
64500;SDS011;50874;24.150;-110.320;2022-09-17T14:59:55;9.68;;;3.10;;
64500;SDS011;50874;24.150;-110.320;2022-09-17T15:04:55;8.57;;;3.03;;
64500;SDS011;50874;24.150;-110.320;2022-09-17T15:07:22;11.48;;;4.00;;
64500;SDS011;50874;24.150;-110.320;2022-09-17T15:09:49;13.85;;;3.80;;
64500;SDS011;50874;24.150;-110.320;2022-09-17T15:12:20;8.50;;;3.78;;
64500;SDS011;50874;24.150;-110.320;2022-09-17T15:14:52;9.25;;;2.80;;
64500;SDS011;50874;24.150;-110.320;2022-09-17T15:17:19;18.02;;;3.72;;
64500;SDS011;50874;24.150;-110.320;2022-09-17T15:19:47;11.25;;;3.22;;
64500;SDS011;50874;24.150;-110.320;2022-09-17T15:22:38;9.52;;;3.28;;
64500;SDS011;50874;24.150;-110.320;2022-09-17T15:25:15;8.93;;;3.45;;
64500;SDS011;50874;24.150;-110.320;2022-09-17T15:27:48;8.83;;;3.20;;
64500;SDS011;50874;24.150;-110.320;2022-09-17T15:30:17;9.18;;;3.28;;
64500;SDS011;50874;24.150;-110.320;2022-09-17T15:32:49;9.43;;;3.55;;
64500;SDS011;50874;24.150;-110.320;2022-09-17T15:38:02;8.63;;;3.00;;
64500;SDS011;50874;24.150;-110.320;2022-09-17T15:40:51;13.23;;;4.00;;
64500;SDS011;50874;24.150;-110.320;2022-09-17T15:43:24;9.38;;;3.03;;
64500;SDS011;50874;24.150;-110.320;2022-09-17T15:45:53;8.60;;;3.28;;
64500;SDS011;50874;24.150;-110.320;2022-09-17T15:50:57;12.50;;;4.00;;
64500;SDS011;50874;24.150;-110.320;2022-09-17T15:55:59;9.57;;;2.85;;
64500;SDS011;50874;24.150;-110.320;2022-09-17T15:58:30;10.68;;;3.28;;
64500;SDS011;50874;24.150;-110.320;2022-09-17T16:06:51;9.48;;;3.15;;
64500;SDS011;50874;24.150;-110.320;2022-09-17T16:08:56;11.35;;;3.13;;
64500;SDS011;50874;24.150;-110.320;2022-09-17T16:11:25;12.37;;;3.67;;
64500;SDS011;50874;24.150;-110.320;2022-09-17T16:13:54;8.02;;;3.15;;
64500;SDS011;50874;24.150;-110.320;2022-09-17T16:16:23;13.88;;;3.60;;
64500;SDS011;50874;24.150;-110.320;2022-09-17T16:19:01;10.90;;;3.50;;
64500;SDS011;50874;24.150;-110.320;2022-09-17T16:21:30;9.88;;;3.45;;
64500;SDS011;50874;24.150;-110.320;2022-09-17T16:23:56;10.45;;;2.97;;
64500;SDS011;50874;24.150;-110.320;2022-09-17T16:26:27;10.15;;;3.40;;
64500;SDS011;50874;24.150;-110.320;2022-09-17T16:28:57;7.15;;;2.88;;
64500;SDS011;50874;24.150;-110.320;2022-09-17T16:31:28;14.00;;;3.55;;
64500;SDS011;50874;24.150;-110.320;2022-09-17T16:33:55;7.82;;;3.35;;
64500;SDS011;50874;24.150;-110.320;2022-09-17T16:36:21;10.45;;;2.75;;
64500;SDS011;50874;24.150;-110.320;2022-09-17T16:38:48;9.63;;;3.53;;
64500;SDS011;50874;24.150;-110.320;2022-09-17T16:41:14;11.43;;;3.92;;
64500;SDS011;50874;24.150;-110.320;2022-09-17T16:43:41;5.72;;;2.50;;
64500;SDS011;50874;24.150;-110.320;2022-09-17T16:46:09;7.82;;;2.95;;
64500;SDS011;50874;24.150;-110.320;2022-09-17T16:48:36;7.03;;;2.65;;
64500;SDS011;50874;24.150;-110.320;2022-09-17T16:51:12;9.68;;;3.13;;
64500;SDS011;50874;24.150;-110.320;2022-09-17T16:53:41;11.15;;;3.50;;
64500;SDS011;50874;24.150;-110.320;2022-09-17T16:56:08;6.03;;;2.65;;
64500;SDS011;50874;24.150;-110.320;2022-09-17T16:58:36;10.57;;;3.53;;
64500;SDS011;50874;24.150;-110.320;2022-09-17T17:01:12;7.90;;;2.88;;
64500;SDS011;50874;24.150;-110.320;2022-09-17T17:03:40;7.03;;;2.58;;
64500;SDS011;50874;24.150;-110.320;2022-09-17T17:06:16;12.30;;;4.00;;
64500;SDS011;50874;24.150;-110.320;2022-09-17T17:08:46;7.85;;;3.17;;
64500;SDS011;50874;24.150;-110.320;2022-09-17T17:11:13;8.38;;;2.88;;
64500;SDS011;50874;24.150;-110.320;2022-09-17T17:13:43;9.30;;;2.78;;
64500;SDS011;50874;24.150;-110.320;2022-09-17T17:16:10;10.98;;;4.05;;
64500;SDS011;50874;24.150;-110.320;2022-09-17T17:18:41;6.03;;;2.60;;
64500;SDS011;50874;24.150;-110.320;2022-09-17T17:21:09;8.38;;;3.35;;
64500;SDS011;50874;24.150;-110.320;2022-09-17T17:23:36;8.73;;;3.13;;
64500;SDS011;50874;24.150;-110.320;2022-09-17T17:26:03;8.00;;;2.60;;
64500;SDS011;50874;24.150;-110.320;2022-09-17T17:28:31;10.23;;;3.00;;
64500;SDS011;50874;24.150;-110.320;2022-09-17T17:30:59;7.85;;;2.90;;
64500;SDS011;50874;24.150;-110.320;2022-09-17T17:33:26;11.13;;;2.90;;
64500;SDS011;50874;24.150;-110.320;2022-09-17T17:35:53;5.65;;;2.50;;
64500;SDS011;50874;24.150;-110.320;2022-09-17T17:38:19;6.75;;;3.05;;
64500;SDS011;50874;24.150;-110.320;2022-09-17T17:40:46;9.70;;;3.10;;
64500;SDS011;50874;24.150;-110.320;2022-09-17T17:43:12;7.40;;;2.92;;
64500;SDS011;50874;24.150;-110.320;2022-09-17T17:45:39;7.50;;;3.00;;
64500;SDS011;50874;24.150;-110.320;2022-09-17T17:48:05;7.25;;;2.70;;
64500;SDS011;50874;24.150;-110.320;2022-09-17T17:50:32;6.78;;;2.92;;
64500;SDS011;50874;24.150;-110.320;2022-09-17T17:52:58;6.38;;;2.97;;
64500;SDS011;50874;24.150;-110.320;2022-09-17T17:55:25;10.85;;;3.35;;
64500;SDS011;50874;24.150;-110.320;2022-09-17T17:57:55;11.48;;;3.33;;
64500;SDS011;50874;24.150;-110.320;2022-09-17T18:00:23;6.90;;;2.67;;
64500;SDS011;50874;24.150;-110.320;2022-09-17T18:02:50;7.15;;;3.05;;
64500;SDS011;50874;24.150;-110.320;2022-09-17T18:05:16;13.07;;;3.50;;
64500;SDS011;50874;24.150;-110.320;2022-09-17T18:07:43;10.80;;;3.05;;
64500;SDS011;50874;24.150;-110.320;2022-09-17T18:10:09;9.25;;;3.30;;